<?xml version="1.0" encoding="UTF-8" standalone="no" ?>
<gpx xmlns="http://www.topografix.com/GPX/1/1" xmlns:xsi="http://www.w3.org/2001/XMLSchema-instance" xsi:schemaLocation="http://www.topografix.com/GPX/1/1 http://www.topografix.com/GPX/1/1/gpx.xsd" version="1.1" creator="VisuGPX - https://www.visugpx.com">
  <metadata>
    <name>GR 101 - MAUBOURGUET - ST LEZER - 23 AVR 26</name>
    <desc><![CDATA[Déviation par la D7 suite à arrêté municipal]]></desc>
  </metadata>
  <trk>
    <name><![CDATA[Trace 1776929266000]]></name>
    <trkseg>
      <trkpt lat="43.46828" lon="0.03377">
        <ele>228.1</ele>
        <time>2026-04-23T07:27:46.000Z</time>
      </trkpt>
      <trkpt lat="43.46822" lon="0.03274">
        <ele>229.4</ele>
        <time>2026-04-23T07:28:46.000Z</time>
      </trkpt>
      <trkpt lat="43.46814" lon="0.03164">
        <ele>231.4</ele>
        <time>2026-04-23T07:29:46.000Z</time>
      </trkpt>
      <trkpt lat="43.46805" lon="0.03058">
        <ele>230.7</ele>
        <time>2026-04-23T07:30:46.000Z</time>
      </trkpt>
      <trkpt lat="43.46803" lon="0.02945">
        <ele>230.2</ele>
        <time>2026-04-23T07:31:46.000Z</time>
      </trkpt>
      <trkpt lat="43.46795" lon="0.02828">
        <ele>227</ele>
        <time>2026-04-23T07:32:46.000Z</time>
      </trkpt>
      <trkpt lat="43.46755" lon="0.02781">
        <ele>231.9</ele>
        <time>2026-04-23T07:33:46.000Z</time>
      </trkpt>
      <trkpt lat="43.46689" lon="0.02853">
        <ele>227.4</ele>
        <time>2026-04-23T07:34:46.000Z</time>
      </trkpt>
      <trkpt lat="43.46615" lon="0.02914">
        <ele>229.1</ele>
        <time>2026-04-23T07:35:46.000Z</time>
      </trkpt>
      <trkpt lat="43.46551" lon="0.02892">
        <ele>225.7</ele>
        <time>2026-04-23T07:36:46.000Z</time>
      </trkpt>
      <trkpt lat="43.46535" lon="0.02811">
        <ele>231.4</ele>
        <time>2026-04-23T07:37:46.000Z</time>
      </trkpt>
      <trkpt lat="43.4653" lon="0.02745">
        <ele>229.5</ele>
        <time>2026-04-23T07:38:46.000Z</time>
      </trkpt>
      <trkpt lat="43.4653" lon="0.02634">
        <ele>226.5</ele>
        <time>2026-04-23T07:39:46.000Z</time>
      </trkpt>
      <trkpt lat="43.46524" lon="0.02577">
        <ele>227.5</ele>
        <time>2026-04-23T07:40:46.000Z</time>
      </trkpt>
      <trkpt lat="43.46521" lon="0.02472">
        <ele>226.2</ele>
        <time>2026-04-23T07:41:46.000Z</time>
      </trkpt>
      <trkpt lat="43.46502" lon="0.02358">
        <ele>228.7</ele>
        <time>2026-04-23T07:42:46.000Z</time>
      </trkpt>
      <trkpt lat="43.46472" lon="0.02246">
        <ele>227.2</ele>
        <time>2026-04-23T07:43:46.000Z</time>
      </trkpt>
      <trkpt lat="43.4644" lon="0.02136">
        <ele>229.3</ele>
        <time>2026-04-23T07:44:46.000Z</time>
      </trkpt>
      <trkpt lat="43.46432" lon="0.0206">
        <ele>229.4</ele>
        <time>2026-04-23T07:45:46.000Z</time>
      </trkpt>
      <trkpt lat="43.46302" lon="0.01569">
        <ele>230.1</ele>
        <time>2026-04-23T07:51:26.000Z</time>
      </trkpt>
      <trkpt lat="43.46253" lon="0.01572">
        <ele>232.5</ele>
        <time>2026-04-23T07:52:26.000Z</time>
      </trkpt>
      <trkpt lat="43.46213" lon="0.01574">
        <ele>231.5</ele>
        <time>2026-04-23T07:53:26.000Z</time>
      </trkpt>
      <trkpt lat="43.46159" lon="0.01571">
        <ele>231.8</ele>
        <time>2026-04-23T07:54:26.000Z</time>
      </trkpt>
      <trkpt lat="43.46079" lon="0.01583">
        <ele>232</ele>
        <time>2026-04-23T07:55:26.000Z</time>
      </trkpt>
      <trkpt lat="43.45997" lon="0.01582">
        <ele>232</ele>
        <time>2026-04-23T07:56:26.000Z</time>
      </trkpt>
      <trkpt lat="43.45917" lon="0.01552">
        <ele>231.1</ele>
        <time>2026-04-23T07:57:26.000Z</time>
      </trkpt>
      <trkpt lat="43.45846" lon="0.01519">
        <ele>231.7</ele>
        <time>2026-04-23T07:58:26.000Z</time>
      </trkpt>
      <trkpt lat="43.45761" lon="0.01521">
        <ele>230.4</ele>
        <time>2026-04-23T07:59:26.000Z</time>
      </trkpt>
      <trkpt lat="43.45675" lon="0.01528">
        <ele>230.3</ele>
        <time>2026-04-23T08:00:26.000Z</time>
      </trkpt>
      <trkpt lat="43.45589" lon="0.01536">
        <ele>231</ele>
        <time>2026-04-23T08:01:26.000Z</time>
      </trkpt>
      <trkpt lat="43.45503" lon="0.01533">
        <ele>230.3</ele>
        <time>2026-04-23T08:02:26.000Z</time>
      </trkpt>
      <trkpt lat="43.45417" lon="0.01528">
        <ele>231</ele>
        <time>2026-04-23T08:03:26.000Z</time>
      </trkpt>
      <trkpt lat="43.45332" lon="0.01538">
        <ele>232.1</ele>
        <time>2026-04-23T08:04:26.000Z</time>
      </trkpt>
      <trkpt lat="43.45298" lon="0.0156">
        <ele>230.3</ele>
        <time>2026-04-23T08:05:26.000Z</time>
      </trkpt>
      <trkpt lat="43.45296" lon="0.01558">
        <ele>233</ele>
        <time>2026-04-23T08:07:01.000Z</time>
      </trkpt>
      <trkpt lat="43.45218" lon="0.01569">
        <ele>232.8</ele>
        <time>2026-04-23T08:08:01.000Z</time>
      </trkpt>
      <trkpt lat="43.45135" lon="0.01569">
        <ele>231.7</ele>
        <time>2026-04-23T08:09:01.000Z</time>
      </trkpt>
      <trkpt lat="43.45052" lon="0.01568">
        <ele>231.7</ele>
        <time>2026-04-23T08:10:01.000Z</time>
      </trkpt>
      <trkpt lat="43.4497" lon="0.01594">
        <ele>232.3</ele>
        <time>2026-04-23T08:11:01.000Z</time>
      </trkpt>
      <trkpt lat="43.4489" lon="0.01627">
        <ele>233.4</ele>
        <time>2026-04-23T08:12:01.000Z</time>
      </trkpt>
      <trkpt lat="43.44806" lon="0.01637">
        <ele>233.6</ele>
        <time>2026-04-23T08:13:01.000Z</time>
      </trkpt>
      <trkpt lat="43.44726" lon="0.01641">
        <ele>235.7</ele>
        <time>2026-04-23T08:14:01.000Z</time>
      </trkpt>
      <trkpt lat="43.44661" lon="0.01594">
        <ele>233.9</ele>
        <time>2026-04-23T08:15:01.000Z</time>
      </trkpt>
      <trkpt lat="43.44639" lon="0.01689">
        <ele>237.1</ele>
        <time>2026-04-23T08:16:01.000Z</time>
      </trkpt>
      <trkpt lat="43.44588" lon="0.01769">
        <ele>235.8</ele>
        <time>2026-04-23T08:17:01.000Z</time>
      </trkpt>
      <trkpt lat="43.44569" lon="0.01767">
        <ele>236.2</ele>
        <time>2026-04-23T08:18:01.000Z</time>
      </trkpt>
      <trkpt lat="43.44519" lon="0.01716">
        <ele>239</ele>
        <time>2026-04-23T08:19:01.000Z</time>
      </trkpt>
      <trkpt lat="43.44531" lon="0.01673">
        <ele>240.1</ele>
        <time>2026-04-23T08:20:01.000Z</time>
      </trkpt>
      <trkpt lat="43.44548" lon="0.01668">
        <ele>237.1</ele>
        <time>2026-04-23T08:21:01.000Z</time>
      </trkpt>
      <trkpt lat="43.44548" lon="0.01664">
        <ele>240.3</ele>
        <time>2026-04-23T08:27:48.000Z</time>
      </trkpt>
      <trkpt lat="43.44545" lon="0.01683">
        <ele>244.9</ele>
        <time>2026-04-23T08:35:13.000Z</time>
      </trkpt>
      <trkpt lat="43.4453" lon="0.01672">
        <ele>237.1</ele>
        <time>2026-04-23T08:36:13.000Z</time>
      </trkpt>
      <trkpt lat="43.44532" lon="0.01671">
        <ele>238.4</ele>
        <time>2026-04-23T08:40:23.000Z</time>
      </trkpt>
      <trkpt lat="43.44542" lon="0.01686">
        <ele>239.5</ele>
        <time>2026-04-23T08:41:23.000Z</time>
      </trkpt>
      <trkpt lat="43.44542" lon="0.01709">
        <ele>240.7</ele>
        <time>2026-04-23T08:42:23.000Z</time>
      </trkpt>
      <trkpt lat="43.44555" lon="0.01713">
        <ele>247.2</ele>
        <time>2026-04-23T08:43:35.000Z</time>
      </trkpt>
      <trkpt lat="43.44543" lon="0.01705">
        <ele>244.8</ele>
        <time>2026-04-23T08:44:45.000Z</time>
      </trkpt>
      <trkpt lat="43.44544" lon="0.01693">
        <ele>243.9</ele>
        <time>2026-04-23T08:45:46.000Z</time>
      </trkpt>
      <trkpt lat="43.44552" lon="0.01669">
        <ele>237.2</ele>
        <time>2026-04-23T08:46:46.000Z</time>
      </trkpt>
      <trkpt lat="43.44549" lon="0.01669">
        <ele>234.5</ele>
        <time>2026-04-23T08:47:52.000Z</time>
      </trkpt>
      <trkpt lat="43.44523" lon="0.01676">
        <ele>233.3</ele>
        <time>2026-04-23T08:48:52.000Z</time>
      </trkpt>
      <trkpt lat="43.44538" lon="0.01633">
        <ele>237.4</ele>
        <time>2026-04-23T08:49:52.000Z</time>
      </trkpt>
      <trkpt lat="43.44565" lon="0.01578">
        <ele>239.2</ele>
        <time>2026-04-23T08:50:52.000Z</time>
      </trkpt>
      <trkpt lat="43.44584" lon="0.01497">
        <ele>238.9</ele>
        <time>2026-04-23T08:51:52.000Z</time>
      </trkpt>
      <trkpt lat="43.44531" lon="0.015">
        <ele>240.6</ele>
        <time>2026-04-23T08:52:52.000Z</time>
      </trkpt>
      <trkpt lat="43.44509" lon="0.01493">
        <ele>240.4</ele>
        <time>2026-04-23T08:53:52.000Z</time>
      </trkpt>
      <trkpt lat="43.44437" lon="0.01532">
        <ele>239.2</ele>
        <time>2026-04-23T08:54:52.000Z</time>
      </trkpt>
      <trkpt lat="43.4436" lon="0.01552">
        <ele>239.6</ele>
        <time>2026-04-23T08:55:52.000Z</time>
      </trkpt>
      <trkpt lat="43.44301" lon="0.01572">
        <ele>241.4</ele>
        <time>2026-04-23T08:56:52.000Z</time>
      </trkpt>
      <trkpt lat="43.44276" lon="0.01621">
        <ele>241.5</ele>
        <time>2026-04-23T08:57:52.000Z</time>
      </trkpt>
      <trkpt lat="43.44281" lon="0.01732">
        <ele>242.1</ele>
        <time>2026-04-23T08:58:52.000Z</time>
      </trkpt>
      <trkpt lat="43.44263" lon="0.01807">
        <ele>241.8</ele>
        <time>2026-04-23T08:59:52.000Z</time>
      </trkpt>
      <trkpt lat="43.44181" lon="0.0182">
        <ele>243.3</ele>
        <time>2026-04-23T09:00:52.000Z</time>
      </trkpt>
      <trkpt lat="43.4415" lon="0.01917">
        <ele>243.2</ele>
        <time>2026-04-23T09:01:52.000Z</time>
      </trkpt>
      <trkpt lat="43.44101" lon="0.02009">
        <ele>240.8</ele>
        <time>2026-04-23T09:02:52.000Z</time>
      </trkpt>
      <trkpt lat="43.44049" lon="0.02094">
        <ele>240.7</ele>
        <time>2026-04-23T09:03:52.000Z</time>
      </trkpt>
      <trkpt lat="43.43977" lon="0.02144">
        <ele>240.6</ele>
        <time>2026-04-23T09:04:52.000Z</time>
      </trkpt>
      <trkpt lat="43.43904" lon="0.02186">
        <ele>241.3</ele>
        <time>2026-04-23T09:05:52.000Z</time>
      </trkpt>
      <trkpt lat="43.43879" lon="0.02191">
        <ele>240.7</ele>
        <time>2026-04-23T09:06:52.000Z</time>
      </trkpt>
      <trkpt lat="43.4388" lon="0.02192">
        <ele>241.5</ele>
        <time>2026-04-23T09:08:02.000Z</time>
      </trkpt>
      <trkpt lat="43.43815" lon="0.02231">
        <ele>237.7</ele>
        <time>2026-04-23T09:09:02.000Z</time>
      </trkpt>
      <trkpt lat="43.43796" lon="0.02233">
        <ele>238.3</ele>
        <time>2026-04-23T09:10:06.000Z</time>
      </trkpt>
      <trkpt lat="43.43717" lon="0.02251">
        <ele>237.5</ele>
        <time>2026-04-23T09:11:06.000Z</time>
      </trkpt>
      <trkpt lat="43.43641" lon="0.02268">
        <ele>239.1</ele>
        <time>2026-04-23T09:12:06.000Z</time>
      </trkpt>
      <trkpt lat="43.43554" lon="0.02268">
        <ele>240.1</ele>
        <time>2026-04-23T09:13:06.000Z</time>
      </trkpt>
      <trkpt lat="43.43486" lon="0.0229">
        <ele>238.9</ele>
        <time>2026-04-23T09:14:06.000Z</time>
      </trkpt>
      <trkpt lat="43.43412" lon="0.0233">
        <ele>240</ele>
        <time>2026-04-23T09:15:06.000Z</time>
      </trkpt>
      <trkpt lat="43.43331" lon="0.02369">
        <ele>240.1</ele>
        <time>2026-04-23T09:16:06.000Z</time>
      </trkpt>
      <trkpt lat="43.43249" lon="0.02407">
        <ele>241.4</ele>
        <time>2026-04-23T09:17:06.000Z</time>
      </trkpt>
      <trkpt lat="43.43167" lon="0.02446">
        <ele>242.4</ele>
        <time>2026-04-23T09:18:06.000Z</time>
      </trkpt>
      <trkpt lat="43.43093" lon="0.02507">
        <ele>242.6</ele>
        <time>2026-04-23T09:19:06.000Z</time>
      </trkpt>
      <trkpt lat="43.43021" lon="0.02565">
        <ele>240.7</ele>
        <time>2026-04-23T09:20:06.000Z</time>
      </trkpt>
      <trkpt lat="43.42946" lon="0.02624">
        <ele>241.1</ele>
        <time>2026-04-23T09:21:06.000Z</time>
      </trkpt>
      <trkpt lat="43.42873" lon="0.02683">
        <ele>242</ele>
        <time>2026-04-23T09:22:06.000Z</time>
      </trkpt>
      <trkpt lat="43.428" lon="0.02743">
        <ele>244.5</ele>
        <time>2026-04-23T09:23:06.000Z</time>
      </trkpt>
      <trkpt lat="43.42727" lon="0.02805">
        <ele>245.1</ele>
        <time>2026-04-23T09:24:06.000Z</time>
      </trkpt>
      <trkpt lat="43.42653" lon="0.02865">
        <ele>245.8</ele>
        <time>2026-04-23T09:25:06.000Z</time>
      </trkpt>
      <trkpt lat="43.4258" lon="0.02928">
        <ele>247.2</ele>
        <time>2026-04-23T09:26:06.000Z</time>
      </trkpt>
      <trkpt lat="43.42504" lon="0.02988">
        <ele>246.9</ele>
        <time>2026-04-23T09:27:06.000Z</time>
      </trkpt>
      <trkpt lat="43.42432" lon="0.03041">
        <ele>243.3</ele>
        <time>2026-04-23T09:28:06.000Z</time>
      </trkpt>
      <trkpt lat="43.42358" lon="0.0311">
        <ele>246.8</ele>
        <time>2026-04-23T09:29:06.000Z</time>
      </trkpt>
      <trkpt lat="43.42279" lon="0.03158">
        <ele>248.1</ele>
        <time>2026-04-23T09:30:06.000Z</time>
      </trkpt>
      <trkpt lat="43.42195" lon="0.03188">
        <ele>248.6</ele>
        <time>2026-04-23T09:31:06.000Z</time>
      </trkpt>
      <trkpt lat="43.42109" lon="0.03216">
        <ele>246</ele>
        <time>2026-04-23T09:32:06.000Z</time>
      </trkpt>
      <trkpt lat="43.42023" lon="0.03245">
        <ele>245.3</ele>
        <time>2026-04-23T09:33:06.000Z</time>
      </trkpt>
      <trkpt lat="43.41939" lon="0.0327">
        <ele>247</ele>
        <time>2026-04-23T09:34:06.000Z</time>
      </trkpt>
      <trkpt lat="43.41854" lon="0.0326">
        <ele>249.1</ele>
        <time>2026-04-23T09:35:06.000Z</time>
      </trkpt>
      <trkpt lat="43.41779" lon="0.03289">
        <ele>251.5</ele>
        <time>2026-04-23T09:36:06.000Z</time>
      </trkpt>
      <trkpt lat="43.41705" lon="0.03339">
        <ele>250.4</ele>
        <time>2026-04-23T09:37:06.000Z</time>
      </trkpt>
      <trkpt lat="43.41649" lon="0.03424">
        <ele>253.7</ele>
        <time>2026-04-23T09:38:06.000Z</time>
      </trkpt>
      <trkpt lat="43.41616" lon="0.03478">
        <ele>249.6</ele>
        <time>2026-04-23T09:39:06.000Z</time>
      </trkpt>
      <trkpt lat="43.41548" lon="0.03549">
        <ele>251.2</ele>
        <time>2026-04-23T09:40:06.000Z</time>
      </trkpt>
      <trkpt lat="43.41464" lon="0.03576">
        <ele>250.6</ele>
        <time>2026-04-23T09:41:06.000Z</time>
      </trkpt>
      <trkpt lat="43.4138" lon="0.03608">
        <ele>251.8</ele>
        <time>2026-04-23T09:42:06.000Z</time>
      </trkpt>
      <trkpt lat="43.41358" lon="0.03592">
        <ele>248.8</ele>
        <time>2026-04-23T09:43:06.000Z</time>
      </trkpt>
      <trkpt lat="43.41359" lon="0.03591">
        <ele>252.8</ele>
        <time>2026-04-23T09:47:46.000Z</time>
      </trkpt>
      <trkpt lat="43.41359" lon="0.03592">
        <ele>252.8</ele>
        <time>2026-04-23T09:51:25.000Z</time>
      </trkpt>
      <trkpt lat="43.4132" lon="0.03635">
        <ele>256</ele>
        <time>2026-04-23T09:52:25.000Z</time>
      </trkpt>
      <trkpt lat="43.41238" lon="0.03659">
        <ele>255.5</ele>
        <time>2026-04-23T09:53:25.000Z</time>
      </trkpt>
      <trkpt lat="43.41176" lon="0.0367">
        <ele>254.7</ele>
        <time>2026-04-23T09:54:25.000Z</time>
      </trkpt>
      <trkpt lat="43.41158" lon="0.03664">
        <ele>254.3</ele>
        <time>2026-04-23T09:55:25.000Z</time>
      </trkpt>
      <trkpt lat="43.41155" lon="0.03671">
        <ele>254.7</ele>
        <time>2026-04-23T09:56:28.000Z</time>
      </trkpt>
      <trkpt lat="43.41094" lon="0.03676">
        <ele>257.4</ele>
        <time>2026-04-23T09:57:28.000Z</time>
      </trkpt>
      <trkpt lat="43.41018" lon="0.03683">
        <ele>258.5</ele>
        <time>2026-04-23T09:58:28.000Z</time>
      </trkpt>
      <trkpt lat="43.40931" lon="0.03686">
        <ele>258.5</ele>
        <time>2026-04-23T09:59:28.000Z</time>
      </trkpt>
      <trkpt lat="43.40846" lon="0.03691">
        <ele>258.4</ele>
        <time>2026-04-23T10:00:28.000Z</time>
      </trkpt>
      <trkpt lat="43.40759" lon="0.03694">
        <ele>257.1</ele>
        <time>2026-04-23T10:01:28.000Z</time>
      </trkpt>
      <trkpt lat="43.40679" lon="0.03673">
        <ele>258.6</ele>
        <time>2026-04-23T10:02:28.000Z</time>
      </trkpt>
      <trkpt lat="43.40595" lon="0.03683">
        <ele>258.6</ele>
        <time>2026-04-23T10:03:28.000Z</time>
      </trkpt>
      <trkpt lat="43.40509" lon="0.03702">
        <ele>259.6</ele>
        <time>2026-04-23T10:04:28.000Z</time>
      </trkpt>
      <trkpt lat="43.40424" lon="0.03721">
        <ele>262.1</ele>
        <time>2026-04-23T10:05:28.000Z</time>
      </trkpt>
      <trkpt lat="43.4034" lon="0.03744">
        <ele>263.1</ele>
        <time>2026-04-23T10:06:28.000Z</time>
      </trkpt>
      <trkpt lat="43.40254" lon="0.0377">
        <ele>264</ele>
        <time>2026-04-23T10:07:28.000Z</time>
      </trkpt>
      <trkpt lat="43.4017" lon="0.03794">
        <ele>263.3</ele>
        <time>2026-04-23T10:08:28.000Z</time>
      </trkpt>
      <trkpt lat="43.40085" lon="0.03812">
        <ele>265.5</ele>
        <time>2026-04-23T10:09:28.000Z</time>
      </trkpt>
      <trkpt lat="43.39999" lon="0.0382">
        <ele>260.7</ele>
        <time>2026-04-23T10:10:28.000Z</time>
      </trkpt>
      <trkpt lat="43.39913" lon="0.0383">
        <ele>262</ele>
        <time>2026-04-23T10:11:28.000Z</time>
      </trkpt>
      <trkpt lat="43.39828" lon="0.03848">
        <ele>262.3</ele>
        <time>2026-04-23T10:12:28.000Z</time>
      </trkpt>
      <trkpt lat="43.39745" lon="0.03872">
        <ele>262.9</ele>
        <time>2026-04-23T10:13:28.000Z</time>
      </trkpt>
      <trkpt lat="43.39661" lon="0.0389">
        <ele>265.1</ele>
        <time>2026-04-23T10:14:28.000Z</time>
      </trkpt>
      <trkpt lat="43.39574" lon="0.03897">
        <ele>265.7</ele>
        <time>2026-04-23T10:15:28.000Z</time>
      </trkpt>
      <trkpt lat="43.39489" lon="0.03918">
        <ele>265.5</ele>
        <time>2026-04-23T10:16:28.000Z</time>
      </trkpt>
      <trkpt lat="43.39403" lon="0.03928">
        <ele>267.8</ele>
        <time>2026-04-23T10:17:28.000Z</time>
      </trkpt>
      <trkpt lat="43.3933" lon="0.03922">
        <ele>267.8</ele>
        <time>2026-04-23T10:18:28.000Z</time>
      </trkpt>
      <trkpt lat="43.39246" lon="0.0394">
        <ele>265.8</ele>
        <time>2026-04-23T10:19:28.000Z</time>
      </trkpt>
      <trkpt lat="43.39166" lon="0.03959">
        <ele>262.9</ele>
        <time>2026-04-23T10:20:28.000Z</time>
      </trkpt>
      <trkpt lat="43.39082" lon="0.03959">
        <ele>264</ele>
        <time>2026-04-23T10:21:28.000Z</time>
      </trkpt>
      <trkpt lat="43.39002" lon="0.03936">
        <ele>263.3</ele>
        <time>2026-04-23T10:22:28.000Z</time>
      </trkpt>
      <trkpt lat="43.38928" lon="0.03922">
        <ele>266.2</ele>
        <time>2026-04-23T10:23:28.000Z</time>
      </trkpt>
      <trkpt lat="43.38866" lon="0.03913">
        <ele>270.5</ele>
        <time>2026-04-23T10:24:28.000Z</time>
      </trkpt>
      <trkpt lat="43.38785" lon="0.03925">
        <ele>268.6</ele>
        <time>2026-04-23T10:25:28.000Z</time>
      </trkpt>
      <trkpt lat="43.38777" lon="0.03935">
        <ele>263.4</ele>
        <time>2026-04-23T10:26:30.000Z</time>
      </trkpt>
      <trkpt lat="43.38771" lon="0.03937">
        <ele>264.6</ele>
        <time>2026-04-23T10:27:32.000Z</time>
      </trkpt>
      <trkpt lat="43.38689" lon="0.03961">
        <ele>269.3</ele>
        <time>2026-04-23T10:28:32.000Z</time>
      </trkpt>
      <trkpt lat="43.38625" lon="0.03978">
        <ele>270.6</ele>
        <time>2026-04-23T10:29:32.000Z</time>
      </trkpt>
      <trkpt lat="43.38559" lon="0.03993">
        <ele>267.6</ele>
        <time>2026-04-23T10:30:32.000Z</time>
      </trkpt>
      <trkpt lat="43.38478" lon="0.04017">
        <ele>272.6</ele>
        <time>2026-04-23T10:31:32.000Z</time>
      </trkpt>
      <trkpt lat="43.38399" lon="0.04014">
        <ele>270.7</ele>
        <time>2026-04-23T10:32:32.000Z</time>
      </trkpt>
      <trkpt lat="43.38316" lon="0.04012">
        <ele>271</ele>
        <time>2026-04-23T10:33:32.000Z</time>
      </trkpt>
      <trkpt lat="43.38263" lon="0.04033">
        <ele>270.4</ele>
        <time>2026-04-23T10:34:32.000Z</time>
      </trkpt>
      <trkpt lat="43.38183" lon="0.04065">
        <ele>271.8</ele>
        <time>2026-04-23T10:35:32.000Z</time>
      </trkpt>
      <trkpt lat="43.38099" lon="0.04083">
        <ele>270.8</ele>
        <time>2026-04-23T10:36:32.000Z</time>
      </trkpt>
      <trkpt lat="43.38085" lon="0.04082">
        <ele>268.3</ele>
        <time>2026-04-23T10:39:44.000Z</time>
      </trkpt>
      <trkpt lat="43.38107" lon="0.04078">
        <ele>268.8</ele>
        <time>2026-04-23T10:40:44.000Z</time>
      </trkpt>
      <trkpt lat="43.38104" lon="0.04079">
        <ele>269.4</ele>
        <time>2026-04-23T10:45:38.000Z</time>
      </trkpt>
      <trkpt lat="43.38087" lon="0.04055">
        <ele>269.2</ele>
        <time>2026-04-23T10:46:38.000Z</time>
      </trkpt>
      <trkpt lat="43.38086" lon="0.04068">
        <ele>260.5</ele>
        <time>2026-04-23T10:47:38.000Z</time>
      </trkpt>
      <trkpt lat="43.381" lon="0.04159">
        <ele>265.1</ele>
        <time>2026-04-23T10:48:38.000Z</time>
      </trkpt>
      <trkpt lat="43.38022" lon="0.04197">
        <ele>267.3</ele>
        <time>2026-04-23T10:49:38.000Z</time>
      </trkpt>
      <trkpt lat="43.37942" lon="0.04204">
        <ele>270.6</ele>
        <time>2026-04-23T10:50:38.000Z</time>
      </trkpt>
      <trkpt lat="43.37867" lon="0.04209">
        <ele>270.7</ele>
        <time>2026-04-23T10:51:38.000Z</time>
      </trkpt>
      <trkpt lat="43.37849" lon="0.04236">
        <ele>268.1</ele>
        <time>2026-04-23T10:52:38.000Z</time>
      </trkpt>
      <trkpt lat="43.3784" lon="0.04149">
        <ele>262.2</ele>
        <time>2026-04-23T10:53:38.000Z</time>
      </trkpt>
      <trkpt lat="43.37841" lon="0.04131">
        <ele>266.5</ele>
        <time>2026-04-23T10:55:46.000Z</time>
      </trkpt>
      <trkpt lat="43.37842" lon="0.04147">
        <ele>264.5</ele>
        <time>2026-04-23T10:56:46.000Z</time>
      </trkpt>
      <trkpt lat="43.37837" lon="0.04253">
        <ele>264.7</ele>
        <time>2026-04-23T10:57:46.000Z</time>
      </trkpt>
      <trkpt lat="43.37761" lon="0.04294">
        <ele>267.4</ele>
        <time>2026-04-23T10:58:46.000Z</time>
      </trkpt>
      <trkpt lat="43.37748" lon="0.04191">
        <ele>269.1</ele>
        <time>2026-04-23T10:59:46.000Z</time>
      </trkpt>
      <trkpt lat="43.3774" lon="0.04077">
        <ele>266.3</ele>
        <time>2026-04-23T11:00:46.000Z</time>
      </trkpt>
      <trkpt lat="43.37731" lon="0.0397">
        <ele>266.3</ele>
        <time>2026-04-23T11:01:46.000Z</time>
      </trkpt>
      <trkpt lat="43.37723" lon="0.0386">
        <ele>270.8</ele>
        <time>2026-04-23T11:02:46.000Z</time>
      </trkpt>
      <trkpt lat="43.37749" lon="0.03786">
        <ele>266.8</ele>
        <time>2026-04-23T11:03:46.000Z</time>
      </trkpt>
      <trkpt lat="43.37723" lon="0.03692">
        <ele>263.5</ele>
        <time>2026-04-23T11:04:46.000Z</time>
      </trkpt>
      <trkpt lat="43.37681" lon="0.03594">
        <ele>264.5</ele>
        <time>2026-04-23T11:05:46.000Z</time>
      </trkpt>
      <trkpt lat="43.3762" lon="0.03515">
        <ele>266.1</ele>
        <time>2026-04-23T11:06:46.000Z</time>
      </trkpt>
      <trkpt lat="43.37541" lon="0.03484">
        <ele>266.9</ele>
        <time>2026-04-23T11:07:46.000Z</time>
      </trkpt>
      <trkpt lat="43.37455" lon="0.03479">
        <ele>268.3</ele>
        <time>2026-04-23T11:08:46.000Z</time>
      </trkpt>
      <trkpt lat="43.37376" lon="0.03441">
        <ele>267.5</ele>
        <time>2026-04-23T11:09:46.000Z</time>
      </trkpt>
      <trkpt lat="43.37289" lon="0.03447">
        <ele>269.9</ele>
        <time>2026-04-23T11:10:46.000Z</time>
      </trkpt>
      <trkpt lat="43.37236" lon="0.03454">
        <ele>271</ele>
        <time>2026-04-23T11:11:46.000Z</time>
      </trkpt>
      <trkpt lat="43.37155" lon="0.03464">
        <ele>275.1</ele>
        <time>2026-04-23T11:12:46.000Z</time>
      </trkpt>
      <trkpt lat="43.37136" lon="0.03418">
        <ele>267.4</ele>
        <time>2026-04-23T11:13:46.000Z</time>
      </trkpt>
      <trkpt lat="43.37108" lon="0.03356">
        <ele>274.3</ele>
        <time>2026-04-23T11:14:46.000Z</time>
      </trkpt>
      <trkpt lat="43.3708" lon="0.03304">
        <ele>272.3</ele>
        <time>2026-04-23T11:15:46.000Z</time>
      </trkpt>
      <trkpt lat="43.37033" lon="0.0325">
        <ele>275.1</ele>
        <time>2026-04-23T11:16:46.000Z</time>
      </trkpt>
      <trkpt lat="43.36979" lon="0.03176">
        <ele>287.4</ele>
        <time>2026-04-23T11:17:46.000Z</time>
      </trkpt>
      <trkpt lat="43.36994" lon="0.03115">
        <ele>280.8</ele>
        <time>2026-04-23T11:18:46.000Z</time>
      </trkpt>
      <trkpt lat="43.37045" lon="0.03075">
        <ele>288.9</ele>
        <time>2026-04-23T11:19:46.000Z</time>
      </trkpt>
      <trkpt lat="43.37109" lon="0.03081">
        <ele>287</ele>
        <time>2026-04-23T11:20:46.000Z</time>
      </trkpt>
      <trkpt lat="43.37181" lon="0.03083">
        <ele>294.2</ele>
        <time>2026-04-23T11:21:46.000Z</time>
      </trkpt>
      <trkpt lat="43.3721" lon="0.03058">
        <ele>305.3</ele>
        <time>2026-04-23T11:22:46.000Z</time>
      </trkpt>
      <trkpt lat="43.37221" lon="0.03041">
        <ele>310.2</ele>
        <time>2026-04-23T11:23:59.000Z</time>
      </trkpt>
      <trkpt lat="43.37209" lon="0.03011">
        <ele>317.6</ele>
        <time>2026-04-23T11:24:59.000Z</time>
      </trkpt>
      <trkpt lat="43.37215" lon="0.03004">
        <ele>320.2</ele>
        <time>2026-04-23T11:26:02.000Z</time>
      </trkpt>
      <trkpt lat="43.37235" lon="0.03055">
        <ele>314.5</ele>
        <time>2026-04-23T11:27:02.000Z</time>
      </trkpt>
    </trkseg>
  </trk>
</gpx>